createdAt,value
2023-03-26T00:02:58.662Z,2.80
2023-03-26T00:06:11.048Z,2.60
2023-03-26T00:09:14.245Z,2.50
2023-03-26T00:12:17.141Z,2.40
2023-03-26T00:15:20.131Z,2.40
2023-03-26T00:18:25.255Z,2.30
2023-03-26T00:21:29.880Z,2.20
2023-03-26T00:24:32.977Z,2.20
2023-03-26T00:27:36.490Z,2.20
2023-03-26T00:30:42.167Z,2.20
2023-03-26T00:33:46.037Z,2.20
2023-03-26T00:36:55.266Z,2.50
2023-03-26T00:40:07.372Z,2.30
2023-03-26T00:43:19.177Z,2.10
2023-03-26T00:46:22.616Z,1.90
2023-03-26T00:49:27.088Z,1.80
2023-03-26T00:52:30.402Z,1.70
2023-03-26T00:55:33.370Z,1.80
2023-03-26T00:58:37.396Z,1.70
2023-03-26T01:01:40.588Z,1.70
2023-03-26T01:05:03.897Z,1.70
2023-03-26T01:08:29.353Z,1.80
2023-03-26T01:11:35.421Z,1.70
2023-03-26T01:14:39.220Z,1.70
2023-03-26T01:17:43.470Z,1.80
2023-03-26T01:20:50.112Z,1.80
2023-03-26T01:24:05.384Z,1.80
2023-03-26T01:27:36.111Z,1.90
2023-03-26T01:30:58.982Z,1.90
2023-03-26T01:34:18.864Z,1.80
2023-03-26T01:37:27.995Z,1.80
2023-03-26T01:40:43.304Z,1.70
2023-03-26T01:44:09.296Z,1.70
2023-03-26T01:47:14.033Z,1.70
2023-03-26T01:50:17.115Z,1.60
2023-03-26T01:53:20.312Z,1.50
2023-03-26T01:56:35.823Z,1.40
2023-03-26T01:59:57.624Z,1.30
2023-03-26T02:03:36.657Z,1.30
2023-03-26T02:07:06.079Z,1.30
2023-03-26T02:10:17.035Z,1.30
2023-03-26T02:13:20.531Z,1.30
2023-03-26T02:16:23.340Z,1.30
2023-03-26T02:19:26.715Z,1.40
2023-03-26T02:22:30.153Z,1.50
2023-03-26T02:25:35.663Z,1.50
2023-03-26T02:28:39.156Z,1.40
2023-03-26T02:31:43.714Z,1.40
2023-03-26T02:34:47.697Z,1.30
2023-03-26T02:37:51.294Z,1.20
2023-03-26T02:40:56.124Z,1.30
2023-03-26T02:43:59.213Z,1.30
2023-03-26T02:47:03.845Z,1.30
2023-03-26T02:50:09.396Z,1.50
2023-03-26T02:53:13.920Z,1.50
2023-03-26T02:56:17.209Z,1.40
2023-03-26T02:59:20.200Z,1.40
2023-03-26T03:02:24.703Z,1.60
2023-03-26T03:05:29.041Z,1.80
2023-03-26T03:08:32.333Z,1.70
2023-03-26T03:11:36.347Z,1.70
2023-03-26T03:14:39.539Z,1.70
2023-03-26T03:17:42.496Z,1.80
2023-03-26T03:20:46.746Z,1.80
2023-03-26T03:23:50.655Z,2.00
2023-03-26T03:26:58.252Z,2.00
2023-03-26T03:30:01.241Z,2.00
2023-03-26T03:33:04.452Z,2.10
2023-03-26T03:36:20.648Z,2.30
2023-03-26T03:39:24.858Z,2.40
2023-03-26T03:42:30.605Z,2.50
2023-03-26T03:45:34.410Z,2.50
2023-03-26T03:48:38.524Z,2.40
2023-03-26T03:51:42.863Z,2.30
2023-03-26T03:54:46.956Z,2.20
2023-03-26T03:57:50.250Z,2.30
2023-03-26T04:00:54.367Z,2.20
2023-03-26T04:03:58.997Z,2.20
2023-03-26T04:07:02.191Z,2.30
2023-03-26T04:10:06.306Z,2.30
2023-03-26T04:13:15.941Z,2.20
2023-03-26T04:16:19.499Z,2.40
2023-03-26T04:19:22.649Z,2.50
2023-03-26T04:22:36.792Z,2.40
2023-03-26T04:25:41.206Z,2.10
2023-03-26T04:28:49.004Z,2.50
2023-03-26T04:31:59.075Z,2.80
2023-03-26T04:35:04.406Z,2.90
2023-03-26T04:38:07.700Z,3.00
2023-03-26T04:41:15.611Z,3.00
2023-03-26T04:44:22.686Z,3.00
2023-03-26T04:47:26.123Z,3.10
2023-03-26T04:50:29.275Z,3.00
2023-03-26T04:53:32.367Z,3.00
2023-03-26T04:56:57.085Z,2.90
2023-03-26T05:00:00.974Z,2.80
2023-03-26T05:03:04.740Z,2.90
2023-03-26T05:06:10.631Z,3.00
2023-03-26T05:09:14.748Z,3.00
2023-03-26T05:12:18.046Z,3.00
2023-03-26T05:15:21.439Z,3.00
2023-03-26T05:18:24.633Z,3.10
2023-03-26T05:21:27.937Z,3.20
2023-03-26T05:24:31.222Z,3.30
2023-03-26T05:27:34.620Z,3.40
2023-03-26T05:30:39.348Z,3.60
2023-03-26T05:33:42.528Z,3.80
2023-03-26T05:36:45.422Z,4.10
2023-03-26T05:39:48.524Z,4.30
2023-03-26T05:42:51.713Z,4.60
2023-03-26T05:45:54.705Z,4.70
2023-03-26T05:48:58.608Z,4.90
2023-03-26T05:52:01.597Z,5.10
2023-03-26T05:55:05.098Z,5.30
2023-03-26T05:58:08.408Z,5.40
2023-03-26T06:01:17.265Z,5.50
2023-03-26T06:04:20.690Z,5.60
2023-03-26T06:07:24.218Z,5.70
2023-03-26T06:10:27.536Z,5.80
2023-03-26T06:13:31.321Z,5.90
2023-03-26T06:16:34.744Z,6.00
2023-03-26T06:19:38.629Z,6.00
2023-03-26T06:22:41.925Z,6.10
2023-03-26T06:25:46.036Z,6.20
2023-03-26T06:28:49.344Z,6.30
2023-03-26T06:31:52.732Z,6.30
2023-03-26T06:34:55.928Z,6.30
2023-03-26T06:37:59.638Z,6.30
2023-03-26T06:41:07.023Z,6.30
2023-03-26T06:44:11.657Z,6.50
2023-03-26T06:47:14.848Z,6.60
2023-03-26T06:50:18.038Z,6.70
2023-03-26T06:53:21.330Z,6.90
2023-03-26T06:56:24.525Z,7.00
2023-03-26T06:59:28.023Z,7.20
2023-03-26T07:02:31.470Z,7.50
2023-03-26T07:05:34.925Z,7.70
2023-03-26T07:08:38.014Z,7.80
2023-03-26T07:11:41.102Z,7.90
2023-03-26T07:14:44.299Z,8.10
2023-03-26T07:17:47.394Z,8.40
2023-03-26T07:20:51.307Z,8.70
2023-03-26T07:23:56.558Z,9.10
2023-03-26T07:27:24.313Z,9.50
2023-03-26T07:31:05.802Z,9.70
2023-03-26T07:34:17.803Z,10.00
2023-03-26T07:37:32.670Z,10.30
2023-03-26T07:41:09.043Z,10.60
2023-03-26T07:44:37.629Z,10.70
2023-03-26T07:47:43.220Z,11.10
2023-03-26T07:50:48.244Z,11.90
2023-03-26T07:53:51.411Z,11.70
2023-03-26T07:57:04.452Z,11.80
2023-03-26T08:00:14.484Z,11.40
2023-03-26T08:03:23.424Z,11.20
2023-03-26T08:06:36.946Z,11.00
2023-03-26T08:09:58.675Z,10.80
2023-03-26T08:13:23.375Z,10.60
2023-03-26T08:16:48.578Z,10.50
2023-03-26T08:19:59.866Z,10.60
2023-03-26T08:23:12.687Z,10.60
2023-03-26T08:26:49.772Z,10.60
2023-03-26T08:30:21.329Z,10.70
2023-03-26T08:33:27.801Z,10.70
2023-03-26T08:36:30.790Z,10.80
2023-03-26T08:39:34.009Z,10.90
2023-03-26T08:43:17.317Z,10.90
2023-03-26T08:46:50.919Z,11.30
2023-03-26T08:50:39.889Z,11.40
2023-03-26T08:54:03.876Z,11.60
2023-03-26T08:57:44.445Z,11.30
2023-03-26T09:00:58.077Z,11.30
2023-03-26T09:04:16.149Z,11.50
2023-03-26T09:07:28.323Z,11.50
2023-03-26T09:10:54.278Z,11.70
2023-03-26T09:14:25.197Z,11.90
2023-03-26T09:17:38.565Z,11.90
2023-03-26T09:20:41.824Z,12.00
2023-03-26T09:23:52.848Z,12.00
2023-03-26T09:27:33.168Z,11.80
2023-03-26T09:31:11.426Z,11.70
2023-03-26T09:34:28.816Z,11.80
2023-03-26T09:37:59.241Z,12.00
2023-03-26T09:41:33.056Z,12.10
2023-03-26T09:44:54.066Z,12.00
2023-03-26T09:48:19.281Z,12.30
2023-03-26T09:51:41.005Z,12.20
2023-03-26T09:55:19.935Z,12.10
2023-03-26T09:58:42.416Z,12.10
2023-03-26T10:01:54.288Z,12.20
2023-03-26T10:05:05.529Z,12.40
2023-03-26T10:08:17.564Z,12.60
2023-03-26T10:11:42.886Z,12.50
2023-03-26T10:14:58.357Z,12.60
2023-03-26T10:18:35.851Z,12.60
2023-03-26T10:21:52.578Z,12.60
2023-03-26T10:25:17.674Z,12.60
2023-03-26T10:28:29.674Z,12.90
2023-03-26T10:31:56.921Z,13.20
2023-03-26T10:35:21.866Z,13.60
2023-03-26T10:38:33.623Z,13.70
2023-03-26T10:41:55.154Z,13.50
2023-03-26T10:45:08.065Z,14.00
2023-03-26T10:48:43.008Z,14.10
2023-03-26T10:51:59.408Z,14.30
2023-03-26T10:55:14.767Z,14.60
2023-03-26T10:58:24.948Z,14.90
2023-03-26T11:02:19.957Z,15.50
2023-03-26T11:05:55.791Z,15.00
2023-03-26T11:09:17.138Z,15.10
2023-03-26T11:12:26.083Z,15.00
2023-03-26T11:15:43.683Z,15.10
2023-03-26T11:19:05.104Z,15.40
2023-03-26T11:22:29.929Z,15.10
2023-03-26T11:25:44.701Z,15.60
2023-03-26T11:29:03.579Z,15.80
2023-03-26T11:32:37.496Z,15.80
2023-03-26T11:35:51.738Z,15.90
2023-03-26T11:38:58.399Z,15.80
2023-03-26T11:42:14.394Z,15.60
2023-03-26T11:45:22.104Z,15.60
2023-03-26T11:48:32.683Z,15.80
2023-03-26T11:51:40.360Z,16.10
2023-03-26T11:54:43.963Z,16.40
2023-03-26T11:57:54.638Z,16.60
2023-03-26T12:00:59.361Z,16.30
2023-03-26T12:04:13.954Z,16.30
2023-03-26T12:07:34.423Z,16.40
2023-03-26T12:10:39.970Z,17.10
2023-03-26T12:13:53.605Z,17.10
2023-03-26T12:17:09.498Z,17.00
2023-03-26T12:20:27.947Z,17.00
2023-03-26T12:23:57.388Z,17.10
2023-03-26T12:27:20.823Z,16.90
2023-03-26T12:30:31.085Z,17.30
2023-03-26T12:33:35.694Z,17.10
2023-03-26T12:36:39.526Z,16.90
2023-03-26T12:40:09.016Z,17.00
2023-03-26T12:44:50.229Z,16.90
2023-03-26T12:47:55.306Z,16.90
2023-03-26T12:50:34.708Z,17.60
2023-03-26T12:53:59.294Z,17.50
2023-03-26T12:57:11.800Z,17.30
2023-03-26T13:00:23.306Z,17.70
2023-03-26T13:03:38.211Z,17.40
2023-03-26T13:07:05.321Z,17.20
2023-03-26T13:10:26.950Z,17.00
2023-03-26T13:13:42.636Z,16.90
2023-03-26T13:16:49.750Z,17.30
2023-03-26T13:20:19.747Z,17.50
2023-03-26T13:23:43.941Z,17.50
2023-03-26T13:27:07.301Z,17.20
2023-03-26T13:30:28.553Z,17.40
2023-03-26T13:33:58.032Z,17.30
2023-03-26T13:37:13.348Z,17.50
2023-03-26T13:40:42.719Z,17.60
2023-03-26T13:44:17.764Z,17.50
2023-03-26T13:47:26.115Z,17.70
2023-03-26T13:50:34.594Z,17.10
2023-03-26T13:53:58.216Z,16.90
2023-03-26T13:57:26.347Z,16.60
2023-03-26T14:00:41.525Z,16.60
2023-03-26T14:03:54.666Z,16.60
2023-03-26T14:07:16.079Z,16.50
2023-03-26T14:10:22.162Z,16.10
2023-03-26T14:13:32.289Z,16.00
2023-03-26T14:16:47.391Z,16.00
2023-03-26T14:20:02.636Z,16.30
2023-03-26T14:23:26.304Z,17.20
2023-03-26T14:27:00.229Z,17.20
2023-03-26T14:30:35.572Z,16.60
2023-03-26T14:33:44.913Z,16.20
2023-03-26T14:37:07.176Z,15.90
2023-03-26T14:40:48.334Z,15.70
2023-03-26T14:44:11.196Z,15.40
2023-03-26T14:47:27.536Z,15.40
2023-03-26T14:50:55.119Z,15.40
2023-03-26T14:54:06.045Z,15.40
2023-03-26T14:58:00.331Z,15.30
2023-03-26T15:01:23.146Z,15.30
2023-03-26T15:05:00.418Z,15.30
2023-03-26T15:08:15.033Z,15.30
2023-03-26T15:11:44.651Z,15.20
2023-03-26T15:15:07.010Z,15.20
2023-03-26T15:19:02.924Z,15.20
2023-03-26T15:22:34.475Z,15.20
2023-03-26T15:25:49.347Z,15.20
2023-03-26T15:29:14.964Z,15.20
2023-03-26T15:32:59.291Z,15.30
2023-03-26T15:36:28.633Z,15.20
2023-03-26T15:40:00.068Z,15.20
2023-03-26T15:43:12.812Z,15.30
2023-03-26T15:46:33.492Z,15.20
2023-03-26T15:49:43.878Z,15.10
2023-03-26T15:53:03.447Z,15.00
2023-03-26T15:56:21.085Z,14.90
2023-03-26T15:59:24.580Z,14.80
2023-03-26T16:02:42.348Z,14.80
2023-03-26T16:06:16.930Z,14.80
2023-03-26T16:10:05.914Z,14.80
2023-03-26T16:13:26.006Z,14.70
2023-03-26T16:16:55.718Z,14.70
2023-03-26T16:20:34.652Z,14.50
2023-03-26T16:23:47.838Z,14.40
2023-03-26T16:27:08.895Z,14.30
2023-03-26T16:30:30.723Z,14.30
2023-03-26T16:33:57.876Z,14.20
2023-03-26T16:37:08.648Z,14.10
2023-03-26T16:40:22.342Z,13.90
2023-03-26T16:43:44.942Z,13.80
2023-03-26T16:47:20.284Z,13.80
2023-03-26T16:50:53.700Z,13.70
2023-03-26T16:54:18.491Z,13.60
2023-03-26T16:57:31.103Z,13.50
2023-03-26T17:00:38.191Z,13.40
2023-03-26T17:04:23.983Z,13.50
2023-03-26T17:07:46.944Z,13.50
2023-03-26T17:11:02.416Z,13.20
2023-03-26T17:14:49.845Z,13.10
2023-03-26T17:18:38.933Z,12.90
2023-03-26T17:21:56.930Z,12.60
2023-03-26T17:25:10.295Z,12.40
2023-03-26T17:28:39.078Z,12.30
2023-03-26T17:31:54.083Z,12.20
2023-03-26T17:35:03.801Z,12.00
2023-03-26T17:38:32.285Z,12.00
2023-03-26T17:42:22.376Z,11.90
2023-03-26T17:45:38.286Z,11.80
2023-03-26T17:48:48.014Z,11.80
2023-03-26T17:52:01.555Z,11.70
2023-03-26T17:55:10.846Z,11.70
2023-03-26T17:58:39.993Z,11.70
2023-03-26T18:01:48.964Z,11.80
2023-03-26T18:04:55.288Z,11.80
2023-03-26T18:08:13.944Z,11.80
2023-03-26T18:11:21.029Z,11.70
2023-03-26T18:14:47.159Z,11.70
2023-03-26T18:17:50.831Z,11.60
2023-03-26T18:20:55.547Z,11.60
2023-03-26T18:24:00.554Z,11.60
2023-03-26T18:27:17.137Z,11.60
2023-03-26T18:30:24.638Z,11.50
2023-03-26T18:33:28.650Z,11.40
2023-03-26T18:36:32.859Z,11.30
2023-03-26T18:39:37.187Z,11.20
2023-03-26T18:42:48.249Z,11.10
2023-03-26T18:45:54.541Z,11.00
2023-03-26T18:49:01.407Z,11.00
2023-03-26T18:52:06.440Z,11.00
2023-03-26T18:55:16.702Z,11.00
2023-03-26T18:58:35.967Z,10.90
2023-03-26T19:01:40.620Z,10.80
2023-03-26T19:04:47.126Z,10.70
2023-03-26T19:07:53.243Z,10.70
2023-03-26T19:10:58.407Z,10.70
2023-03-26T19:14:20.714Z,10.50
2023-03-26T19:17:29.256Z,10.40
2023-03-26T19:20:46.654Z,10.30
2023-03-26T19:23:53.468Z,10.40
2023-03-26T19:26:57.646Z,10.40
2023-03-26T19:30:02.291Z,10.30
2023-03-26T19:33:19.711Z,10.30
2023-03-26T19:36:31.909Z,10.30
2023-03-26T19:39:43.711Z,10.20
2023-03-26T19:42:53.867Z,10.20
2023-03-26T19:46:02.280Z,10.20
2023-03-26T19:49:06.546Z,10.10
2023-03-26T19:52:17.077Z,10.10
2023-03-26T19:55:25.889Z,10.20
2023-03-26T19:58:30.926Z,10.20
2023-03-26T20:01:35.251Z,10.20
2023-03-26T20:04:39.669Z,10.20
2023-03-26T20:07:45.729Z,10.20
2023-03-26T20:10:54.404Z,10.20
2023-03-26T20:13:59.388Z,10.10
2023-03-26T20:17:03.612Z,10.00
2023-03-26T20:20:12.841Z,10.00
2023-03-26T20:23:20.439Z,9.90
2023-03-26T20:26:26.396Z,9.90
2023-03-26T20:29:35.524Z,9.90
2023-03-26T20:32:44.406Z,9.90
2023-03-26T20:35:49.284Z,9.90
2023-03-26T20:38:53.295Z,9.90
2023-03-26T20:41:57.309Z,9.90
2023-03-26T20:45:01.929Z,9.90
2023-03-26T20:48:05.776Z,9.90
2023-03-26T20:51:16.021Z,9.90
2023-03-26T20:54:23.765Z,9.90
2023-03-26T20:57:27.300Z,9.90
2023-03-26T21:00:33.149Z,9.90
2023-03-26T21:03:36.248Z,9.90
2023-03-26T21:06:39.441Z,9.90
2023-03-26T21:09:45.193Z,9.90
2023-03-26T21:12:56.988Z,9.90
2023-03-26T21:16:01.054Z,9.80
2023-03-26T21:19:04.704Z,9.90
2023-03-26T21:22:14.043Z,9.90
2023-03-26T21:25:25.942Z,9.80
2023-03-26T21:28:45.927Z,9.80
2023-03-26T21:31:48.977Z,9.80
2023-03-26T21:38:00.020Z,9.80
2023-03-26T21:41:03.904Z,9.80
2023-03-26T21:44:08.961Z,9.80
2023-03-26T21:47:12.255Z,9.70
2023-03-26T21:50:19.136Z,9.70
2023-03-26T21:53:22.846Z,9.70
2023-03-26T21:56:41.215Z,9.70
2023-03-26T22:00:01.793Z,9.70
2023-03-26T22:03:50.164Z,9.70
2023-03-26T22:07:03.487Z,9.70
2023-03-26T22:10:08.618Z,9.60
2023-03-26T22:13:12.319Z,9.60
2023-03-26T22:16:17.024Z,9.60
2023-03-26T22:19:20.143Z,9.60
2023-03-26T22:22:26.509Z,9.60
2023-03-26T22:25:29.803Z,9.50
2023-03-26T22:28:33.192Z,9.50
2023-03-26T22:31:40.011Z,9.50
2023-03-26T22:34:45.327Z,9.50
2023-03-26T22:37:48.622Z,9.40
2023-03-26T22:40:59.261Z,9.40
2023-03-26T22:44:16.931Z,9.40
2023-03-26T22:47:22.814Z,9.40
2023-03-26T22:50:27.397Z,9.40
2023-03-26T22:53:31.108Z,9.30
2023-03-26T22:56:34.140Z,9.30
2023-03-26T22:59:37.703Z,9.30
2023-03-26T23:02:42.482Z,9.30
2023-03-26T23:05:58.567Z,9.20
2023-03-26T23:09:01.719Z,9.10
2023-03-26T23:12:05.132Z,9.10
2023-03-26T23:15:10.009Z,9.10
2023-03-26T23:18:12.879Z,9.10
2023-03-26T23:21:21.969Z,9.10
2023-03-26T23:24:26.730Z,9.10
2023-03-26T23:27:29.890Z,9.10
2023-03-26T23:30:34.416Z,9.10
2023-03-26T23:33:39.759Z,9.00
2023-03-26T23:36:45.003Z,9.00
2023-03-26T23:39:48.117Z,9.10
2023-03-26T23:42:51.184Z,9.10
2023-03-26T23:45:54.998Z,9.00
2023-03-26T23:49:00.347Z,9.00
2023-03-26T23:52:05.583Z,9.00
2023-03-26T23:55:08.988Z,8.90
2023-03-26T23:58:12.164Z,8.90
